Meath Environmental Platform

Observations for Trim Market St

Time AQI Temp °C Hum % Pres Pa CO μg/m³ H₂S μg/m³ NO μg/m³ NO₂ μg/m³ O₃ μg/m³ SO₂ μg/m³ PM1 μg/m³ PM2.5 μg/m³ PM10 μg/m³
Wednesday 26 August 2026
13:16 2 21.1 75 10,485 0.2 0 0.92 17.93 56.18 0 7.84 9.06 13.52
13:14 2 21 75 9,418 0.19 0 1.1 14.73 41.95 0 8.55 10.02 14.11
13:11 2 20.8 75 8,782 0.22 0 1.17 12.77 51.73 0 9.26 11.93 16.5
13:10 2 20.8 75 9,016 0.23 0 1.08 11.61 42.61 0 7.84 9.05 12.91
13:06 2 20.7 75 10,568 0.17 0 0.95 11.8 41.66 0 8.55 9.05 12.91
13:05 2 20.7 75 11,589 0.19 0 0.93 11.8 41.66 0 7.84 9.05 13.51
13:04 2 20.7 75 11,565 0.19 0 0.9 12.04 41.69 0 9.26 10.49 15.3
12:57 2 20.6 75 7,976 0.15 0 1.11 12.15 42.4 0 8.55 9.51 14.68
12:56 2 20.5 75 7,802 0.16 0 1.07 10.79 43.45 0 8.55 10.47 16.47
12:55 2 20.5 75 8,066 0.16 0 0.92 11.87 41.1 0 9.26 11.42 17.07
12:54 2 20.4 75 8,181 0.14 0 0.94 10.5 42.93 0 8.55 11.42 15.87
12:53 2 20.4 75 8,507 0.14 0 1.12 10.5 42.88 0 6.41 8.07 12.89
12:52 2 20.4 75 9,174 0.16 0 1.08 10.71 43.74 0 8.55 9.51 14.68
12:50 2 20.3 75 10,192 0.15 0 1.31 11.55 41.79 0 5.7 8.07 11.7
12:49 2 20.3 75 10,856 0.15 0 1.19 10.62 42.7 0 7.84 9.99 14.68
12:47 2 20.3 75 11,887 0.18 0 1.42 11.28 36.58 0 7.84 9.02 13.48
12:43 2 20.3 75 11,562 0.16 0 1.19 11.09 41.34 0 8.55 9.97 14.67
12:37 2 20.3 76 5,771 0.2 0 1.54 11.51 38.89 0 9.26 9.94 15.82
12:35 2 20.2 76 3,858 0.17 0 1.16 8.26 43.07 0 9.26 9.93 14.62
12:34 2 20.2 76 2,617 0.17 0 1.37 9.5 41.53 0 9.98 11.35 16.38